Time;durP1;ratioP1;P1;durP2;ratioP2;P2;SDS_P1;SDS_P2;PMS_P1;PMS_P2;Temp;Humidity;BMP_temperature;BMP_pressure;BME280_temperature;BME280_humidity;BME280_pressure;Samples;Min_cycle;Max_cycle;Signal;HPM_P1;HPM_P2
2022/04/25 00:00:05;;;;;;;7.30;2.62;;;;;;;12.16;70.52;98147.28;4290239;33;34094;-69
2022/04/25 00:02:39;;;;;;;5.82;2.72;;;;;;;12.42;69.35;98135.88;4288506;33;36066;-70
2022/04/25 00:05:08;;;;;;;6.70;2.40;;;;;;;12.52;68.40;98137.25;4289777;33;33404;-70
2022/04/25 00:07:37;;;;;;;4.62;2.20;;;;;;;12.65;67.76;98140.22;4289656;33;34380;-70
2022/04/25 00:10:10;;;;;;;5.93;2.80;;;;;;;11.88;70.04;98136.06;4289255;33;34044;-69
2022/04/25 00:12:45;;;;;;;4.03;2.22;;;;;;;12.41;68.80;98142.03;4286883;33;35172;-70
2022/04/25 00:15:14;;;;;;;7.45;2.45;;;;;;;11.87;70.91;98142.16;4276767;33;34550;-69
2022/04/25 00:17:43;;;;;;;9.90;2.97;;;;;;;11.12;73.53;98137.75;4288527;33;33763;-69
2022/04/25 00:20:11;;;;;;;7.12;3.33;;;;;;;11.41;73.59;98132.47;4288432;33;35442;-69
2022/04/25 00:22:39;;;;;;;8.27;2.65;;;;;;;11.91;70.67;98133.37;4286186;33;36009;-69
2022/04/25 00:25:08;;;;;;;7.12;3.00;;;;;;;11.60;71.68;98127.50;4289631;33;35216;-70
2022/04/25 00:27:35;;;;;;;7.43;3.33;;;;;;;11.75;71.21;98129.56;4288622;33;33706;-70
2022/04/25 00:30:04;;;;;;;8.18;3.25;;;;;;;11.79;70.72;98122.47;4289290;33;33889;-70
2022/04/25 00:32:35;;;;;;;6.12;3.00;;;;;;;11.96;70.09;98130.59;4288546;33;35884;-70
2022/04/25 00:35:06;;;;;;;10.88;3.62;;;;;;;11.81;69.78;98126.75;4287304;33;34447;-70
2022/04/25 00:37:36;;;;;;;9.13;4.12;;;;;;;11.78;69.60;98126.84;4288422;33;32235;-70
2022/04/25 00:40:05;;;;;;;8.32;3.15;;;;;;;11.67;69.30;98126.37;4288508;33;33794;-70
2022/04/25 00:42:38;;;;;;;6.03;2.58;;;;;;;11.76;69.30;98131.28;4288366;33;35089;-70
2022/04/25 00:45:11;;;;;;;8.45;2.42;;;;;;;11.81;69.08;98121.53;4289154;33;35327;-69
2022/04/25 00:47:40;;;;;;;6.93;2.37;;;;;;;11.36;70.99;98123.06;4286778;33;34373;-70
2022/04/25 00:50:09;;;;;;;6.45;1.98;;;;;;;11.26;71.27;98123.41;4288494;33;34617;-69
2022/04/25 00:52:37;;;;;;;6.18;2.58;;;;;;;11.25;71.10;98126.94;4288116;33;35038;-70
2022/04/25 00:55:08;;;;;;;8.70;2.85;;;;;;;11.42;69.93;98127.22;4293556;33;34457;-70
2022/04/25 00:57:37;;;;;;;5.37;2.33;;;;;;;11.52;69.32;98130.34;4279210;33;32751;-70
2022/04/25 01:00:10;;;;;;;6.65;2.25;;;;;;;11.92;68.11;98129.84;4280881;33;34629;-69
2022/04/25 01:02:39;;;;;;;8.48;2.87;;;;;;;11.66;68.08;98135.94;4291067;33;35069;-70
2022/04/25 01:05:08;;;;;;;4.75;2.83;;;;;;;11.92;67.25;98132.47;4293904;33;34613;-70
2022/04/25 01:07:37;;;;;;;7.87;2.55;;;;;;;11.94;67.55;98137.62;4292121;33;34350;-70
2022/04/25 01:10:07;;;;;;;9.60;2.85;;;;;;;11.95;67.53;98145.41;4280799;33;33955;-69
2022/04/25 01:12:35;;;;;;;5.45;2.50;;;;;;;11.97;67.59;98147.13;4293137;33;35462;-70
2022/04/25 01:15:08;;;;;;;6.03;2.97;;;;;;;12.13;67.35;98153.47;4292866;33;35289;-70
2022/04/25 01:17:37;;;;;;;7.37;3.45;;;;;;;12.22;67.06;98152.28;4292834;33;33670;-70
2022/04/25 01:20:07;;;;;;;6.37;2.87;;;;;;;12.48;66.39;98153.94;4278997;33;33964;-69
2022/04/25 01:27:15;;;;;;;6.35;3.83;;;;;;;12.38;66.66;98152.56;4292621;33;33867;-69
2022/04/25 01:28:33;;;;;;;7.18;2.65;;;;;;;12.66;65.51;98152.38;4281251;33;33691;-70
2022/04/25 01:31:03;;;;;;;6.07;2.50;;;;;;;12.68;64.59;98150.56;4291254;33;33895;-70
2022/04/25 01:33:31;;;;;;;5.60;2.25;;;;;;;12.70;63.99;98149.56;4292529;33;35160;-70
2022/04/25 01:35:59;;;;;;;5.50;2.17;;;;;;;13.11;62.29;98142.78;4291421;33;34488;-69
2022/04/25 01:38:27;;;;;;;6.80;2.40;;;;;;;13.34;61.25;98142.75;4291854;33;34571;-70
2022/04/25 01:40:57;;;;;;;4.18;1.90;;;;;;;13.10;61.12;98144.56;4292122;33;34057;-69
2022/04/25 01:43:25;;;;;;;3.25;1.75;;;;;;;13.13;61.85;98139.22;4292872;33;35816;-69
2022/04/25 01:45:53;;;;;;;4.10;2.05;;;;;;;13.35;61.18;98131.38;4293553;33;34617;-70
2022/04/25 01:48:21;;;;;;;5.28;1.80;;;;;;;13.11;61.82;98135.78;4293092;33;34616;-69
2022/04/25 01:50:49;;;;;;;3.28;2.03;;;;;;;13.31;60.61;98129.81;4292508;33;33181;-70
2022/04/25 01:53:18;;;;;;;5.75;2.20;;;;;;;13.26;61.01;98127.34;4292701;33;34940;-69
2022/04/25 01:55:45;;;;;;;7.37;2.15;;;;;;;13.42;61.12;98131.97;4292886;33;35566;-69
2022/04/25 01:58:13;;;;;;;6.50;2.00;;;;;;;13.30;62.32;98125.44;4292212;33;33780;-69
2022/04/25 02:00:43;;;;;;;3.22;2.00;;;;;;;12.92;62.39;98125.25;4293093;33;33937;-70
2022/04/25 02:03:11;;;;;;;3.25;2.05;;;;;;;12.93;63.08;98128.72;4292437;33;36008;-70
2022/04/25 02:05:40;;;;;;;5.00;2.05;;;;;;;12.87;63.50;98129.81;4290551;33;35275;-70
2022/04/25 02:08:08;;;;;;;4.53;1.90;;;;;;;13.04;62.91;98118.66;4289921;33;33653;-69
2022/04/25 02:11:19;;;;;;;4.95;2.00;;;;;;;12.92;62.67;98122.62;4290162;33;34094;-69
2022/04/25 02:13:54;;;;;;;7.37;3.60;;;;;;;12.98;62.16;98125.00;4288844;33;212993;-71
2022/04/25 02:16:27;;;;;;;5.03;2.15;;;;;;;12.84;63.32;98124.69;4290840;33;33677;-70
2022/04/25 02:18:55;;;;;;;3.60;1.90;;;;;;;12.64;64.13;98115.03;4288711;33;33891;-69
2022/04/25 02:21:26;;;;;;;4.50;2.45;;;;;;;13.01;63.33;98117.03;4288763;33;34963;-74
2022/04/25 02:23:57;;;;;;;4.90;2.35;;;;;;;12.80;63.47;98117.91;4289413;33;34441;-74
2022/04/25 02:26:25;;;;;;;6.12;2.20;;;;;;;12.47;64.61;98115.69;4288979;33;34538;-71
2022/04/25 02:28:54;;;;;;;12.37;3.28;;;;;;;12.55;64.10;98118.84;4275410;33;34051;-71
2022/04/25 02:31:24;;;;;;;10.63;2.78;;;;;;;12.53;64.48;98125.91;4290203;33;36176;-73
2022/04/25 02:33:52;;;;;;;8.07;2.67;;;;;;;12.21;65.67;98125.34;4289587;33;35378;-74
2022/04/25 02:36:20;;;;;;;4.45;2.45;;;;;;;12.49;64.52;98129.53;4290267;33;33636;-73
2022/04/25 02:38:48;;;;;;;4.37;2.37;;;;;;;12.47;65.39;98141.78;4289537;33;33920;-75
2022/04/25 02:41:16;;;;;;;10.73;3.00;;;;;;;12.48;65.10;98140.87;4290321;33;35992;-74
2022/04/25 02:43:45;;;;;;;8.75;3.17;;;;;;;12.14;66.71;98144.72;4289615;33;35492;-73
2022/04/25 02:46:15;;;;;;;4.65;2.35;;;;;;;12.25;66.06;98134.75;4289422;33;34483;-73
2022/04/25 02:48:44;;;;;;;12.60;2.90;;;;;;;12.36;65.19;98143.97;4289507;33;34049;-71
2022/04/25 02:51:14;;;;;;;5.90;3.33;;;;;;;12.58;64.95;98160.50;4276978;33;33487;-74
2022/04/25 02:53:43;;;;;;;4.37;2.47;;;;;;;12.36;65.65;98159.62;4289505;33;35375;-74
2022/04/25 02:56:11;;;;;;;3.75;2.33;;;;;;;12.32;65.54;98164.09;4290369;33;34705;-72
2022/04/25 02:58:40;;;;;;;7.65;3.40;;;;;;;12.41;65.35;98163.75;4287929;33;34127;-71
2022/04/25 03:01:08;;;;;;;6.50;3.05;;;;;;;12.54;64.98;98168.53;4287835;33;35822;-73
2022/04/25 03:03:37;;;;;;;10.90;2.30;;;;;;;12.48;64.98;98180.91;4289414;33;34512;-69
2022/04/25 03:06:08;;;;;;;3.55;2.08;;;;;;;12.64;64.38;98186.41;4290260;33;34530;-71
2022/04/25 03:08:38;;;;;;;4.07;2.00;;;;;;;12.18;65.60;98177.66;4289499;33;34635;-71
2022/04/25 03:11:08;;;;;;;4.82;2.00;;;;;;;12.53;64.86;98188.56;4290377;33;34669;-69
2022/04/25 03:13:38;;;;;;;3.75;2.25;;;;;;;12.30;65.16;98192.88;4289447;33;35761;-71
2022/04/25 03:16:07;;;;;;;6.70;2.60;;;;;;;12.41;64.70;98196.84;4288343;33;34512;-69
2022/04/25 03:18:35;;;;;;;4.82;2.40;;;;;;;12.52;64.19;98197.28;4288474;33;34053;-72
2022/04/25 03:21:05;;;;;;;4.70;1.77;;;;;;;12.12;65.15;98201.34;4289348;33;35084;-73
2022/04/25 03:23:41;;;;;;;6.20;2.40;;;;;;;12.13;65.34;98192.63;4271681;33;32849;-73
2022/04/25 03:26:09;;;;;;;10.23;2.55;;;;;;;11.63;67.70;98184.72;4290169;33;33700;-69
2022/04/25 03:28:38;;;;;;;5.60;2.47;;;;;;;11.82;67.11;98193.63;4289320;33;33781;-70
2022/04/25 03:31:06;;;;;;;3.53;1.90;;;;;;;11.92;66.98;98195.06;4289248;33;35040;-70
2022/04/25 03:33:36;;;;;;;5.60;1.83;;;;;;;12.09;66.42;98204.09;4289343;33;34616;-73
2022/04/25 03:36:05;;;;;;;4.10;2.08;;;;;;;12.21;65.14;98203.66;4276454;33;33742;-73
2022/04/25 03:38:33;;;;;;;5.62;1.48;;;;;;;11.69;66.11;98190.59;4289252;33;33881;-70
2022/04/25 03:41:02;;;;;;;3.33;1.62;;;;;;;11.95;65.32;98201.94;4290309;33;35024;-73
2022/04/25 03:43:32;;;;;;;2.78;1.67;;;;;;;12.10;65.04;98197.94;4289224;33;35384;-70
2022/04/25 03:46:01;;;;;;;1.95;1.20;;;;;;;12.03;65.40;98199.06;4290037;33;33674;-69
2022/04/25 03:48:30;;;;;;;2.15;1.37;;;;;;;12.44;63.77;98200.19;4288329;33;34074;-69
2022/04/25 03:50:58;;;;;;;2.28;1.50;;;;;;;12.68;63.22;98187.97;4289947;33;36039;-71
2022/04/25 03:53:26;;;;;;;3.05;1.45;;;;;;;12.18;64.57;98190.69;4288127;33;34539;-69
2022/04/25 03:58:43;;;;;;;2.72;1.50;;;;;;;11.76;65.86;98186.87;4289505;33;34151;-69
2022/04/25 04:01:12;;;;;;;4.57;1.50;;;;;;;11.78;66.03;98189.44;4289997;33;36008;-70
2022/04/25 04:03:40;;;;;;;1.58;1.27;;;;;;;11.88;65.64;98195.22;4288034;33;35492;-69
2022/04/25 04:06:11;;;;;;;3.12;1.42;;;;;;;11.78;66.48;98189.44;4289964;33;33724;-69
2022/04/25 04:08:43;;;;;;;1.77;1.48;;;;;;;11.81;66.48;98194.56;4288976;33;34061;-69
2022/04/25 04:11:46;;;;;;;2.60;1.30;;;;;;;11.71;66.38;98196.63;4290070;33;35179;-68
2022/04/25 04:14:12;;;;;;;1.70;1.30;;;;;;;12.05;65.48;98202.47;4288998;33;34464;-69
2022/04/25 04:16:42;;;;;;;2.22;1.45;;;;;;;12.29;65.06;98201.59;4289813;33;34484;-69
2022/04/25 04:19:10;;;;;;;1.80;1.33;;;;;;;11.63;67.04;98205.59;4288637;33;34884;-69
2022/04/25 04:21:38;;;;;;;2.60;1.30;;;;;;;11.89;66.39;98204.72;4289800;33;35627;-70
2022/04/25 04:24:09;;;;;;;2.00;1.20;;;;;;;12.01;65.90;98206.09;4288933;33;35350;-70
2022/04/25 04:26:42;;;;;;;2.42;1.25;;;;;;;12.31;64.97;98209.37;4288277;33;33775;-71
2022/04/25 04:29:17;;;;;;;3.47;1.50;;;;;;;12.23;64.76;98209.66;4284982;33;33971;-70
2022/04/25 04:31:46;;;;;;;1.95;1.40;;;;;;;12.10;65.05;98209.22;4289562;33;35319;-73
2022/04/25 04:34:19;;;;;;;3.08;1.33;;;;;;;12.21;65.11;98208.00;4289190;33;35417;-70
2022/04/25 04:36:51;;;;;;;4.97;1.62;;;;;;;12.11;65.28;98207.47;4289046;33;34364;-71
2022/04/25 04:39:36;;;;;;;2.22;1.42;;;;;;;12.30;64.44;98218.09;4287845;33;33916;-71
2022/04/25 04:42:11;;;;;;;4.32;1.62;;;;;;;12.37;64.34;98219.59;4288736;33;34912;-70
2022/04/25 04:44:41;;;;;;;2.70;1.35;;;;;;;11.83;65.95;98218.84;4289553;33;34524;-70
2022/04/25 04:47:09;;;;;;;3.15;1.35;;;;;;;12.40;64.15;98223.84;4288754;33;33594;-72
2022/04/25 04:49:41;;;;;;;2.72;1.37;;;;;;;12.26;64.73;98227.78;4289680;33;34047;-73
2022/04/25 04:52:11;;;;;;;3.58;1.30;;;;;;;12.77;64.32;98228.56;4288292;33;34173;-71
2022/04/25 04:54:40;;;;;;;2.90;1.30;;;;;;;12.84;63.73;98223.97;4289028;33;34633;-70
2022/04/25 04:57:08;;;;;;;2.12;1.12;;;;;;;12.52;64.67;98223.41;4289400;33;34525;-71
2022/04/25 04:59:37;;;;;;;3.17;1.37;;;;;;;13.12;63.20;98228.16;4289308;33;34045;-71
2022/04/25 05:02:06;;;;;;;2.08;1.17;;;;;;;12.75;63.65;98237.38;4289344;33;34920;-71
2022/04/25 05:04:35;;;;;;;1.58;1.17;;;;;;;12.71;64.56;98234.88;4288781;33;34694;-72
2022/04/25 05:07:03;;;;;;;1.55;1.17;;;;;;;13.01;63.13;98232.03;4275693;33;33710;-74
2022/04/25 05:09:31;;;;;;;5.62;1.62;;;;;;;12.83;63.86;98227.47;4289180;33;34072;-74
2022/04/25 05:12:00;;;;;;;3.42;1.33;;;;;;;12.07;66.80;98237.19;4288407;33;35083;-73
2022/04/25 05:14:28;;;;;;;3.17;1.45;;;;;;;13.12;63.53;98238.59;4289355;33;35020;-72
2022/04/25 05:16:56;;;;;;;1.85;1.23;;;;;;;13.14;63.41;98244.62;4288372;33;33769;-72
2022/04/25 05:19:25;;;;;;;2.33;1.25;;;;;;;13.38;62.76;98250.69;4288328;33;34665;-73
2022/04/25 05:21:53;;;;;;;5.43;1.30;;;;;;;12.80;64.49;98244.12;4287211;33;34936;-73
2022/04/25 05:24:21;;;;;;;3.25;1.50;;;;;;;12.48;66.12;98247.94;4287918;33;34506;-70
2022/04/25 05:26:49;;;;;;;3.67;1.50;;;;;;;13.14;63.74;98242.00;4288188;33;33640;-73
2022/04/25 05:29:19;;;;;;;3.00;1.77;;;;;;;13.21;63.24;98251.31;4288282;33;33913;-70
2022/04/25 05:31:49;;;;;;;4.20;1.35;;;;;;;13.17;63.35;98252.34;4288125;33;35180;-70
2022/04/25 05:34:28;;;;;;;6.65;1.62;;;;;;;13.13;63.68;98251.62;4275838;33;34278;-70
2022/04/25 05:36:57;;;;;;;4.05;1.42;;;;;;;13.79;61.48;98256.84;4287761;33;33859;-70
2022/04/25 05:39:25;;;;;;;2.95;1.40;;;;;;;13.35;62.32;98251.62;4288486;33;34775;-70
2022/04/25 05:41:53;;;;;;;1.20;1.08;;;;;;;12.92;64.23;98257.63;4290051;33;34988;-71
2022/04/25 05:44:21;;;;;;;6.05;1.73;;;;;;;13.43;62.88;98260.03;4290693;33;35418;-70
2022/04/25 05:46:49;;;;;;;2.83;1.45;;;;;;;13.16;63.69;98248.00;4289863;33;33895;-71
2022/04/25 05:52:05;;;;;;;2.35;1.12;;;;;;;14.95;58.46;98251.88;4290579;33;35095;-71
2022/04/25 05:54:34;;;;;;;3.87;1.30;;;;;;;14.63;59.20;98250.69;4290450;33;35426;-71
2022/04/25 05:57:02;;;;;;;1.62;1.12;;;;;;;15.01;57.35;98255.97;4290886;33;33727;-71
2022/04/25 05:59:31;;;;;;;3.33;1.30;;;;;;;14.23;61.21;98261.97;4290593;33;33924;-71
2022/04/25 06:01:59;;;;;;;1.42;1.15;;;;;;;14.27;59.54;98260.06;4290730;33;35140;-70
2022/04/25 06:04:28;;;;;;;0.98;0.90;;;;;;;14.35;60.13;98260.59;4277536;33;32910;-71
2022/04/25 06:06:57;;;;;;;1.35;0.85;;;;;;;14.57;58.99;98255.25;4289940;33;33557;-70
2022/04/25 06:09:26;;;;;;;1.70;1.17;;;;;;;14.93;58.20;98259.81;4289941;33;34148;-70
2022/04/25 06:11:55;;;;;;;2.15;1.17;;;;;;;15.63;55.34;98256.53;4289047;33;34934;-70
2022/04/25 06:14:22;;;;;;;2.85;1.20;;;;;;;15.48;57.47;98253.72;4290631;33;35051;-71
2022/04/25 06:16:50;;;;;;;1.98;1.05;;;;;;;15.27;57.38;98255.59;4289626;33;33769;-71
2022/04/25 06:19:19;;;;;;;2.58;1.10;;;;;;;15.52;55.38;98254.44;4290764;33;33846;-71
2022/04/25 06:21:47;;;;;;;3.72;1.20;;;;;;;16.01;54.26;98256.44;4289570;33;35888;-71
2022/04/25 06:24:16;;;;;;;2.20;1.20;;;;;;;15.44;56.88;98256.56;4276241;33;35361;-71
2022/04/25 06:26:47;;;;;;;4.87;1.20;;;;;;;15.83;55.70;98258.19;4287106;33;33721;-71
2022/04/25 06:29:16;;;;;;;1.95;1.00;;;;;;;15.65;56.29;98255.53;4290672;33;33989;-72
2022/04/25 06:31:44;;;;;;;1.05;0.95;;;;;;;15.78;55.20;98257.59;4289812;33;35969;-70
2022/04/25 06:34:12;;;;;;;1.58;0.90;;;;;;;16.55;52.93;98251.03;4290702;33;34661;-70
2022/04/25 06:36:41;;;;;;;4.20;1.00;;;;;;;16.60;52.54;98252.50;4290160;33;34591;-71
2022/04/25 06:39:10;;;;;;;2.10;1.20;;;;;;;16.73;52.63;98254.47;4290691;33;34767;-71
2022/04/25 06:41:38;;;;;;;3.60;1.20;;;;;;;16.03;54.16;98265.94;4289053;33;35160;-71
2022/04/25 06:44:07;;;;;;;0.90;0.90;;;;;;;16.45;54.89;98255.94;4289693;33;35135;-71
2022/04/25 06:46:35;;;;;;;1.50;1.10;;;;;;;17.14;53.36;98261.97;4289717;33;33661;-71
2022/04/25 06:49:23;;;;;;;1.90;1.00;;;;;;;16.80;53.45;98259.34;4290725;33;33910;-71
2022/04/25 06:51:56;;;;;;;1.33;0.90;;;;;;;17.38;53.12;98270.25;4289091;33;34919;-70
2022/04/25 06:54:25;;;;;;;1.73;1.10;;;;;;;17.57;50.17;98278.81;4290554;33;35344;-72
2022/04/25 06:56:55;;;;;;;2.00;1.20;;;;;;;17.25;49.77;98280.63;4290241;33;32861;-71
2022/04/25 06:59:24;;;;;;;1.48;0.90;;;;;;;16.53;52.39;98280.03;4289653;33;34029;-71
2022/04/25 07:01:52;;;;;;;1.92;1.17;;;;;;;16.84;50.81;98283.72;4289704;33;35875;-70
2022/04/25 07:04:21;;;;;;;2.28;1.17;;;;;;;17.60;48.98;98286.56;4290345;33;34757;-71
2022/04/25 07:06:49;;;;;;;2.15;1.23;;;;;;;17.21;51.52;98287.00;4289751;33;33663;-71
2022/04/25 07:09:18;;;;;;;1.58;1.17;;;;;;;17.34;51.27;98295.91;4290565;33;33908;-71
2022/04/25 07:11:50;;;;;;;1.73;1.10;;;;;;;17.62;52.73;98292.56;4289684;33;35188;-71
2022/04/25 07:14:21;;;;;;;0.88;0.82;;;;;;;17.14;50.39;98286.47;4289974;33;35365;-71
2022/04/25 07:16:52;;;;;;;1.87;1.00;;;;;;;18.17;48.21;98298.28;4289499;33;33716;-71
2022/04/25 07:19:22;;;;;;;2.60;1.35;;;;;;;17.98;51.75;98298.50;4289483;33;34157;-71
2022/04/25 07:30:14;;;;;;;;;;;;;;;17.74;49.93;98295.47;4289951;33;33935;-71
2022/04/25 07:32:43;;;;;;;2.25;1.23;;;;;;;18.40;49.87;98291.66;4285126;33;36277;-71
2022/04/25 07:35:11;;;;;;;1.92;1.40;;;;;;;18.70;49.09;98291.59;4290280;33;34233;-71
2022/04/25 07:37:39;;;;;;;1.92;1.30;;;;;;;18.50;49.37;98289.31;4289496;33;33477;-71
2022/04/25 07:40:09;;;;;;;2.17;1.42;;;;;;;18.89;48.71;98295.78;4277416;33;34872;-71
2022/04/25 07:42:38;;;;;;;2.37;1.40;;;;;;;18.77;46.99;98292.91;4289425;33;35995;-71
2022/04/25 07:45:08;;;;;;;2.60;1.55;;;;;;;18.42;47.27;98296.81;4290257;33;34602;-71
2022/04/25 07:47:36;;;;;;;1.48;1.05;;;;;;;17.92;49.95;98306.75;4275693;33;33812;-71
2022/04/25 07:50:05;;;;;;;3.08;1.50;;;;;;;18.36;49.43;98304.16;4290327;33;33971;-71
2022/04/25 07:52:36;;;;;;;5.43;2.20;;;;;;;17.85;48.93;98303.59;4289061;33;34965;-71
2022/04/25 07:55:07;;;;;;;2.33;1.50;;;;;;;17.76;49.69;98304.13;4290246;33;35410;-71
2022/04/25 07:57:35;;;;;;;1.92;1.33;;;;;;;17.90;50.90;98304.22;4289508;33;33064;-71
2022/04/25 08:00:07;;;;;;;4.82;1.48;;;;;;;18.62;47.87;98303.53;4289390;33;33958;-71
2022/04/25 08:02:35;;;;;;;2.25;1.33;;;;;;;19.28;45.23;98303.00;4288563;33;35075;-71
2022/04/25 08:05:04;;;;;;;1.75;1.17;;;;;;;18.97;46.72;98306.72;4288919;33;35198;-71
2022/04/25 08:07:32;;;;;;;2.30;1.08;;;;;;;18.23;48.01;98307.59;4289401;33;33659;-71
2022/04/25 08:10:00;;;;;;;0.95;0.95;;;;;;;19.08;47.22;98306.88;4290182;33;35365;-71
2022/04/25 08:18:01;;;;;;;1.52;0.75;;;;;;;20.38;43.29;98306.47;4289073;33;34523;-71
2022/04/25 08:20:35;;;;;;;0.60;0.60;;;;;;;20.00;44.71;98309.91;4289283;33;34864;-71
2022/04/25 08:23:05;;;;;;;0.85;0.80;;;;;;;20.64;42.28;98308.22;4289241;33;35221;-71
2022/04/25 08:25:34;;;;;;;1.15;0.85;;;;;;;21.01;43.88;98315.41;4290325;33;33726;-71
2022/04/25 08:28:07;;;;;;;2.33;1.35;;;;;;;20.45;43.70;98307.75;4289306;33;33593;-71
2022/04/25 08:30:35;;;;;;;1.67;1.08;;;;;;;21.11;41.61;98312.97;4289937;33;34730;-71
2022/04/25 08:33:04;;;;;;;2.20;1.10;;;;;;;22.31;40.25;98318.41;4289062;33;35038;-71
2022/04/25 08:35:32;;;;;;;1.70;1.20;;;;;;;21.63;41.36;98322.50;4289336;33;34591;-71
2022/04/25 08:38:00;;;;;;;1.40;1.00;;;;;;;20.19;44.02;98323.59;4288261;33;33471;-71
2022/04/25 08:40:29;;;;;;;2.12;1.25;;;;;;;20.82;44.26;98323.78;4289998;33;34745;-71
2022/04/25 08:43:02;;;;;;;1.67;1.15;;;;;;;21.38;40.94;98332.19;4288900;33;35055;-71
2022/04/25 08:45:32;;;;;;;1.80;1.30;;;;;;;20.76;40.97;98330.34;4287865;33;34299;-71
2022/04/25 08:48:01;;;;;;;1.10;1.00;;;;;;;20.36;44.19;98334.81;4288876;33;33852;-71
2022/04/25 08:50:30;;;;;;;1.98;1.27;;;;;;;21.33;41.60;98328.19;4288918;33;34778;-71
2022/04/25 08:52:59;;;;;;;5.00;1.12;;;;;;;20.69;42.58;98334.38;4288664;33;36116;-71
2022/04/25 08:55:27;;;;;;;1.42;1.25;;;;;;;20.44;43.79;98341.28;4288800;33;34521;-71
2022/04/25 08:57:56;;;;;;;1.08;0.95;;;;;;;21.09;43.12;98341.34;4288948;33;33418;-71
2022/04/25 09:00:25;;;;;;;3.75;1.48;;;;;;;21.73;41.90;98334.13;4289538;33;33943;-71
2022/04/25 09:02:54;;;;;;;1.85;1.10;;;;;;;20.76;44.65;98340.09;4288751;33;35957;-71
2022/04/25 09:05:23;;;;;;;1.58;1.17;;;;;;;21.08;41.92;98339.66;4265367;33;35180;-71
2022/04/25 09:07:54;;;;;;;2.08;0.73;;;;;;;20.86;42.75;98338.50;4288070;33;33597;-71
2022/04/25 09:10:22;;;;;;;3.45;1.12;;;;;;;21.21;41.19;98343.12;4289496;33;34697;-71
2022/04/25 09:12:51;;;;;;;0.88;0.70;;;;;;;19.76;44.58;98346.69;4288909;33;35969;-70
2022/04/25 09:15:21;;;;;;;0.88;0.80;;;;;;;20.96;42.05;98347.47;4290420;33;34572;-71
2022/04/25 09:17:56;;;;;;;0.95;0.70;;;;;;;19.95;42.76;98352.47;4290457;33;33981;-71
2022/04/25 09:20:26;;;;;;;0.70;0.70;;;;;;;21.12;42.32;98357.00;4290465;33;33811;-71
2022/04/25 09:22:55;;;;;;;1.10;0.90;;;;;;;21.17;41.29;98349.59;4290521;33;34300;-71
2022/04/25 09:25:23;;;;;;;1.60;0.50;;;;;;;20.87;42.19;98348.13;4291421;33;35376;-71
2022/04/25 09:28:14;;;;;;;;;;;;;;;21.62;39.37;98365.00;4290596;33;34534;-71
2022/04/25 09:30:56;;;;;;;0.75;0.62;;;;;;;22.39;39.02;98360.25;4291235;33;34031;-71
2022/04/25 09:33:25;;;;;;;4.82;0.93;;;;;;;22.09;38.10;98358.03;4290296;33;35975;-71
2022/04/25 09:35:55;;;;;;;0.90;0.70;;;;;;;21.33;39.31;98370.53;4291126;33;35361;-71
2022/04/25 09:38:30;;;;;;;1.05;0.85;;;;;;;20.87;41.24;98368.47;4290368;33;33830;-71
2022/04/25 09:40:59;;;;;;;3.30;0.77;;;;;;;21.47;39.65;98372.25;4290319;33;34078;-71
2022/04/25 09:43:31;;;;;;;1.30;0.60;;;;;;;20.96;41.71;98373.94;4289506;33;34708;-71
2022/04/25 09:46:06;;;;;;;2.05;0.75;;;;;;;21.38;40.77;98371.91;4290985;33;34456;-71
2022/04/25 09:48:36;;;;;;;0.62;0.60;;;;;;;21.32;40.30;98369.72;4290056;33;33692;-71
2022/04/25 09:51:11;;;;;;;2.17;1.15;;;;;;;21.84;41.79;98380.22;4291032;33;34055;-71
2022/04/25 09:53:46;;;;;;;1.77;1.00;;;;;;;21.52;42.15;98380.72;4288497;33;34625;-71
2022/04/25 09:56:34;;;;;;;1.20;1.00;;;;;;;21.45;42.01;98385.56;4289673;33;34576;-71
2022/04/25 09:59:07;;;;;;;1.75;0.93;;;;;;;21.04;40.00;98385.84;4289374;33;33787;-72
2022/04/25 10:01:39;;;;;;;1.20;1.05;;;;;;;20.23;43.42;98392.97;4290012;33;33552;-72
2022/04/25 10:04:36;;;;;;;1.90;1.17;;;;;;;20.24;42.50;98392.84;4289942;33;36063;-71
2022/04/25 10:07:06;;;;;;;1.58;1.12;;;;;;;20.40;42.63;98387.41;4290252;33;34565;-70
2022/04/25 10:09:35;;;;;;;1.62;0.80;;;;;;;21.23;41.48;98383.59;4289787;33;33013;-70
2022/04/25 10:12:05;;;;;;;1.37;0.88;;;;;;;21.09;41.69;98388.97;4289146;33;33942;-72
2022/04/25 10:14:33;;;;;;;3.15;1.23;;;;;;;22.24;39.92;98394.03;4290513;33;35111;-72
2022/04/25 10:17:03;;;;;;;0.77;0.77;;;;;;;22.15;38.85;98403.53;4289792;33;34335;-72
2022/04/25 10:19:32;;;;;;;0.90;0.75;;;;;;;21.42;39.36;98392.87;4290530;33;33641;-72
2022/04/25 10:22:00;;;;;;;2.47;1.00;;;;;;;21.92;40.21;98393.75;4289803;33;34052;-71
2022/04/25 10:24:28;;;;;;;0.82;0.70;;;;;;;23.19;38.02;98396.66;4290384;33;34962;-71
2022/04/25 10:26:57;;;;;;;1.80;1.10;;;;;;;22.52;38.57;98397.34;4287101;33;35348;-71
2022/04/25 10:29:31;;;;;;;1.35;1.05;;;;;;;22.94;37.43;98391.50;4290213;33;34362;-71
2022/04/25 10:35:48;;;;;;;1.85;1.10;;;;;;;20.61;39.66;98390.44;4276361;33;35156;-71
2022/04/25 10:38:49;;;;;;;1.45;1.00;;;;;;;20.52;42.55;98398.94;4283713;33;34447;-71
2022/04/25 10:44:17;;;;;;;1.75;0.95;;;;;;;20.74;41.89;98410.78;4288778;33;33727;-71
2022/04/25 10:47:07;;;;;;;2.05;0.90;;;;;;;19.47;42.86;98416.22;4290025;33;35756;-71
2022/04/25 10:49:49;;;;;;;1.17;0.90;;;;;;;19.44;43.78;98412.91;4276286;33;34511;-71
2022/04/25 10:52:42;;;;;;;1.85;1.08;;;;;;;19.31;42.54;98418.94;4273362;33;33580;-71
2022/04/25 10:55:14;;;;;;;1.80;1.20;;;;;;;19.47;41.64;98418.84;4276367;33;34058;-71
2022/04/25 10:58:03;;;;;;;2.72;1.30;;;;;;;19.11;43.68;98421.94;4275517;33;35127;-71
2022/04/25 11:00:41;;;;;;;1.23;0.93;;;;;;;19.00;44.04;98419.09;4275356;33;35253;-71
2022/04/25 11:03:30;;;;;;;2.67;1.25;;;;;;;20.19;41.33;98426.69;4274765;33;34390;-73
2022/04/25 11:06:03;;;;;;;4.22;1.42;;;;;;;20.67;41.02;98430.66;4276279;33;33834;-71
2022/04/25 11:08:33;;;;;;;1.42;1.10;;;;;;;21.69;40.76;98433.34;4275348;33;34820;-71
2022/04/25 11:11:04;;;;;;;1.55;0.95;;;;;;;22.47;40.81;98424.19;4276468;33;35331;-71
2022/04/25 11:13:35;;;;;;;1.50;0.88;;;;;;;22.21;37.59;98420.78;4275500;33;34461;-71
2022/04/25 11:16:16;;;;;;;1.30;0.90;;;;;;;20.55;40.94;98433.13;4275145;33;34518;-71
2022/04/25 11:18:45;;;;;;;1.45;0.90;;;;;;;20.70;39.98;98435.72;4275371;33;35849;-71
2022/04/25 11:21:16;;;;;;;1.58;0.90;;;;;;;20.14;41.15;98439.34;4274494;33;34464;-72
2022/04/25 11:23:44;;;;;;;3.15;0.55;;;;;;;19.85;43.16;98449.09;4275271;33;33762;-71
2022/04/25 11:26:21;;;;;;;1.12;0.90;;;;;;;19.33;41.17;98454.00;4276088;33;34869;-71
2022/04/25 11:29:09;;;;;;;4.50;0.95;;;;;;;19.20;42.01;98457.47;4275200;33;35084;-71
2022/04/25 11:31:38;;;;;;;1.10;0.70;;;;;;;19.93;42.03;98456.56;4274831;33;34370;-71
2022/04/25 11:34:12;;;;;;;1.17;0.80;;;;;;;20.26;42.13;98453.56;4274513;33;34285;-71
2022/04/25 11:36:41;;;;;;;2.95;0.80;;;;;;;20.51;40.45;98452.81;4275313;33;33845;-71
2022/04/25 11:42:06;;;;;;;1.70;0.70;;;;;;;20.55;41.43;98456.94;4276078;33;34445;-71
2022/04/25 11:44:38;;;;;;;2.90;0.82;;;;;;;20.23;40.91;98467.81;4275528;33;34486;-71
2022/04/25 11:47:06;;;;;;;73.60;7.80;;;;;;;20.64;40.91;98466.09;4275120;33;34111;-71
2022/04/25 11:49:37;;;;;;;0.65;0.60;;;;;;;20.48;40.02;98474.16;4262178;33;35027;-71
2022/04/25 11:52:06;;;;;;;2.08;0.85;;;;;;;20.39;42.76;98475.59;4280088;33;34686;-71
2022/04/25 11:54:34;;;;;;;1.23;0.73;;;;;;;20.30;41.15;98473.56;4289467;33;34410;-72
2022/04/25 11:57:03;;;;;;;1.40;0.80;;;;;;;20.37;41.39;98463.44;4289469;33;34681;-71
2022/04/25 11:59:30;;;;;;;3.47;0.90;;;;;;;20.37;43.51;98474.03;4287946;33;35147;-72
2022/04/25 12:01:59;;;;;;;1.30;0.57;;;;;;;21.21;39.05;98464.91;4277044;33;34473;-72
2022/04/25 12:04:29;;;;;;;0.60;0.60;;;;;;;20.58;40.43;98475.25;4275409;33;33709;-71
2022/04/25 12:07:02;;;;;;;3.00;0.70;;;;;;;20.60;39.14;98478.63;4290120;33;34061;-72
2022/04/25 12:17:54;;;;;;;0.82;0.45;;;;;;;20.88;38.80;98471.56;4276488;33;34846;-72
2022/04/25 12:20:32;;;;;;;0.60;0.60;;;;;;;20.48;37.98;98481.25;4289754;33;35102;-70
2022/04/25 12:23:00;;;;;;;3.03;0.90;;;;;;;20.10;39.58;98474.84;4289414;33;34469;-71
2022/04/25 12:25:29;;;;;;;2.25;0.62;;;;;;;20.50;37.13;98474.91;4290025;33;34206;-71
2022/04/25 12:28:17;;;;;;;2.70;0.75;;;;;;;21.04;37.31;98476.66;4288805;33;34103;-70
2022/04/25 12:30:50;;;;;;;1.17;0.60;;;;;;;20.86;37.79;98484.06;4289072;33;35953;-72